• Join FlightAware (Why Join?)
  • Login
  • US Flag 
01:06AM EDT


 

Airport Tracker/Info


-or-


 

Live Flight TrackerFlight Track Log ✈ DAL2164 ✈ 20-Jul-2013 ✈ KPDX - KMSP

Flight Track Log - Related Links

Times and Time Zones

All times are in EDT time to prevent confusion due to time zone crossing. See the DAL2164 flight status page for this flight to view local times or setup timezone preferences in your user account.

Time Position Orientation Groundspeed Altitude Reporting Facility
EDT Latitude Longitude Course Direction KTS MPH feet Rate Location/Type
04:47PM 45.5983 -122.6083 90° East 167 192 800  Level Seattle Center
04:48PM 45.6261 -122.6928 295° West 251 289 3,500 2,220 Climbing Seattle Center
04:49PM 45.6556 -122.7672 300° West 249 287 5,600 2,580 Climbing Seattle Center
04:50PM 45.6572 -122.0903 60° Northeast  Level FlightAware Approximate
04:50PM 45.7239 -122.7703 358° North 287 330 8,500  Level Seattle Center
04:51PM 45.7129 -121.9166 66° East  Level FlightAware Approximate
04:51PM 45.7681 -122.6842 54° Northeast 306 352 10,500  Level Seattle Center
04:52PM 45.7334 -121.7313 90° East  Level FlightAware Approximate
04:52PM 45.7553 -122.5167 96° East 362 417 12,100  Level Seattle Center
04:53PM 45.7334 -121.5398 90° East  Level FlightAware Approximate
04:53PM 45.7558 -122.3581 90° East 396 456 13,800  Level Seattle Center
04:54PM 45.7536 -122.1908 91° East 418 481 15,600 1,800 Climbing Seattle Center
04:55PM 45.7514 -122.0186 91° East 431 496 17,500 1,500 Climbing Seattle Center
04:56PM 45.7472 -121.8578 92° East 443 510 18,700 1,380 Climbing Seattle Center
04:58PM 45.7464 -121.6756 90° East 458 527 20,400 1,620 Climbing Seattle Center
04:59PM 45.7464 -121.4903 90° East 465 535 22,100 1,560 Climbing Seattle Center
05:00PM 45.7431 -121.2606 91° East 480 552 23,700 1,500 Climbing Seattle Center
05:01PM 45.7428 -121.0653 90° East 488 562 25,200 1,560 Climbing Seattle Center
05:02PM 45.7403 -120.8694 91° East 492 566 26,900 1,560 Climbing Seattle Center
05:03PM 45.7378 -120.6753 91° East 490 564 28,400 1,500 Climbing Seattle Center
05:04PM 45.7344 -120.4803 91° East 489 563 30,000 1,260 Climbing Seattle Center
05:05PM 45.7317 -120.2861 91° East 488 562 31,000 480 Climbing Seattle Center
05:06PM 45.7272 -120.0917 92° East 488 562 31,000  Level Seattle Center
05:07PM 45.7242 -119.8972 91° East 488 562 31,000  Level Seattle Center
05:08PM 45.7206 -119.7047 91° East 484 557 31,000  Level Seattle Center
05:09PM 45.7147 -119.5133 92° East 481 554 31,000  Level Seattle Center
05:10PM 45.7103 -119.3214 92° East 481 554 31,000  Level Seattle Center
05:11PM 45.7056 -119.1294 92° East 482 555 31,000  Level Seattle Center
05:12PM 45.7003 -118.9369 92° East 484 557 31,000  Level Seattle Center
05:13PM 45.7108 -118.7456 85° East 483 556 31,000  Level Seattle Center
05:14PM 45.7197 -118.5531 86° East 485 558 31,000  Level Seattle Center
05:15PM 45.7294 -118.3547 86° East 484 557 31,000  Level Seattle Center
05:16PM 45.7383 -118.1619 86° East 486 559 31,000  Level Seattle Center
05:17PM 45.7481 -117.9314 86° East 487 560 31,000  Level Seattle Center
05:18PM 45.7581 -117.7389 86° East 488 562 31,000  Level Seattle Center
05:19PM 45.7656 -117.5464 87° East 487 560 31,000  Level Seattle Center
05:20PM 45.7728 -117.3533 87° East 488 562 31,000  Level Seattle Center
05:21PM 45.7803 -117.1600 87° East 489 563 31,000  Level Seattle Center
05:22PM 45.7869 -116.9667 87° East 489 563 31,000  Level Seattle Center
05:23PM 45.7942 -116.7747 87° East 486 559 31,000  Level Seattle Center
05:24PM 45.8000 -116.5833 87° East 484 557 31,000  Level Seattle Center
05:25PM 45.8058 -116.3892 87° East 487 560 31,000  Level Seattle Center
05:26PM 45.8133 -116.1958 87° East 488 562 31,000  Level Seattle Center
05:27PM 45.8186 -116.0011 88° East 490 564 31,000  Level Seattle Center
05:28PM 45.8247 -115.7672 88° East 491 565 31,000  Level Seattle Center
05:29PM 45.8294 -115.5733 88° East 490 564 31,000  Level Seattle Center
05:30PM 45.8344 -115.3725 88° East 489 563 31,000  Level Seattle Center
05:31PM 45.8369 -115.2167 89° East 490 564 31,000  Level Salt Lake Center
05:32PM 45.8414 -115.0297 88° East 490 564 31,000  Level Salt Lake Center
05:33PM 45.8444 -114.8114 89° East 490 564 31,000  Level Salt Lake Center
05:34PM 45.8478 -114.6247 88° East 489 563 31,000  Level Salt Lake Center
05:35PM 45.8536 -114.4089 88° East 485 558 31,000 -60 Level Salt Lake Center
05:36PM 45.8542 -114.2083 90° East 493 567 30,900  Descending Salt Lake Center
05:37PM 45.8567 -114.0153 89° East 488 562 31,000  Climbing Salt Lake Center
05:38PM 45.8586 -113.8222 89° East 486 559 31,000  Level Salt Lake Center
05:39PM 45.8594 -113.6219 90° East 488 562 31,000  Level Salt Lake Center
05:40PM 45.8608 -113.4275 89° East 487 560 31,000  Level Salt Lake Center
05:41PM 45.8614 -113.2314 90° East 490 564 31,000  Level Salt Lake Center
05:42PM 45.8619 -112.9953 90° East 493 567 31,000  Level Salt Lake Center
05:43PM 45.8625 -112.8000 90° East 490 564 31,000  Level Salt Lake Center
05:44PM 45.8619 -112.6061 90° East 487 560 31,000  Level Salt Lake Center
05:45PM 45.8617 -112.4114 90° East 488 562 31,000  Level Salt Lake Center
05:46PM 45.8608 -112.2164 90° East 488 562 31,000  Level Salt Lake Center
05:47PM 45.8603 -112.0208 90° East 490 564 31,000  Level Salt Lake Center
05:48PM 45.8600 -111.8275 90° East 485 558 31,000  Level Salt Lake Center
05:49PM 45.8606 -111.5950 90° East 485 558 31,000  Level Salt Lake Center
05:51PM 45.8597 -111.4011 90° East 484 557 31,000  Level Salt Lake Center
05:52PM 45.8600 -111.2003 90° East 492 566 31,000  Level Salt Lake Center
05:53PM 45.8564 -110.9908 91° East 500 575 31,000  Level Salt Lake Center
05:54PM 45.8544 -110.7917 91° East 496 571 31,000  Level Salt Lake Center
05:55PM 45.8519 -110.5975 91° East 488 562 31,000  Level Salt Lake Center
05:56PM 45.8492 -110.4058 91° East 487 560 31,000  Level Salt Lake Center
05:57PM 45.8467 -110.2089 91° East 495 570 31,000  Level Salt Lake Center
05:58PM 45.8433 -110.0136 91° East 492 566 31,000  Level Salt Lake Center
05:59PM 45.8408 -109.7783 91° East 493 567 31,000  Level Salt Lake Center
06:00PM 45.8364 -109.5833 92° East 490 564 31,000  Level Salt Lake Center
06:01PM 45.8319 -109.3889 92° East 490 564 31,000  Level Salt Lake Center
06:02PM 45.8267 -109.1944 92° East 489 563 31,000  Level Salt Lake Center
06:03PM 45.8217 -109.0006 92° East 488 562 31,000  Level Salt Lake Center
06:04PM 45.8158 -108.8061 92° East 487 560 31,000  Level Salt Lake Center
06:05PM 45.8089 -108.6111 93° East 489 563 31,000  Level Salt Lake Center
06:06PM 45.7936 -108.4067 96° East 515 593 31,000  Level Salt Lake Center
06:07PM 45.7764 -108.1722 96° East 496 571 31,000  Level Salt Lake Center
06:08PM 45.7603 -107.9739 97° East 500 575 31,000  Level Salt Lake Center
06:09PM 45.7447 -107.7761 96° East 498 573 31,000  Level Salt Lake Center
06:10PM 45.7281 -107.5814 97° East 493 567 31,000  Level Salt Lake Center
06:11PM 45.7114 -107.3883 97° East 489 563 31,000  Level Salt Lake Center
06:12PM 45.7111 -107.1919 90° East 493 567 31,000  Level Salt Lake Center
06:13PM 45.7156 -106.9939 88° East 497 572 31,000  Level Salt Lake Center
06:14PM 45.7197 -106.7992 88° East 494 568 31,000  Level Salt Lake Center
06:15PM 45.7244 -106.5639 88° East 493 567 31,000  Level Salt Lake Center
06:16PM 45.7286 -106.3692 88° East 492 566 31,000  Level Salt Lake Center
06:17PM 45.7339 -106.1756 88° East 490 564 31,000  Level Salt Lake Center
06:18PM 45.7431 -105.9875 86° East 480 552 31,000  Level Salt Lake Center
06:19PM 45.7469 -105.7964 88° East 481 554 31,000  Level Salt Lake Center
06:20PM 45.7519 -105.6053 88° East 481 554 31,000  Level Salt Lake Center
06:21PM 45.7569 -105.4139 88° East 482 555 31,000  Level Salt Lake Center
06:22PM 45.7625 -105.2231 88° East 483 556 31,000  Level Salt Lake Center
06:23PM 45.7678 -104.9922 88° East 483 556 31,000  Level Salt Lake Center
06:24PM 45.7733 -104.8011 88° East 483 556 31,000  Level Salt Lake Center
06:25PM 45.7803 -104.6111 87° East 480 552 31,000  Level Salt Lake Center
06:27PM 45.7858 -104.4331 87° East 481 554 31,000 -60 Level Salt Lake Center
06:28PM 45.7917 -104.2439 87° East 479 551 30,900  Descending Salt Lake Center
06:29PM 45.7983 -104.0556 87° East 477 549 31,000  Climbing Salt Lake Center
06:30PM 45.8061 -103.8286 87° East 478 550 31,000  Level Salt Lake Center
06:31PM 45.8150 -103.6414 86° East 476 548 31,000  Level Salt Lake Center
06:32PM 45.8236 -103.4547 86° East 473 544 31,000  Level Salt Lake Center
06:33PM 45.8317 -103.2672 86° East 473 544 31,000  Level Salt Lake Center
06:34PM 45.8356 -103.0767 88° East 477 549 31,000  Level Salt Lake Center
06:35PM 45.8322 -102.8842 91° East 480 552 31,000  Level Salt Lake Center
06:36PM 45.8214 -102.6953 95° East 481 554 31,000  Level Salt Lake Center
06:37PM 45.8036 -102.4672 96° East 482 555 31,000 -60 Level Salt Lake Center
06:38PM 45.7903 -102.2714 96° East 486 559 30,900  Descending Salt Lake Center
06:39PM 45.7625 -102.0797 102° East 492 566 31,000  Climbing Salt Lake Center
06:40PM 45.7328 -101.8867 102° East 496 571 31,000  Level Salt Lake Center
06:41PM 45.6861 -101.6175 104° East 495 570 31,000  Level Minneapolis Center
06:42PM 45.6544 -101.4264 103° East 496 571 31,000  Level Minneapolis Center
06:43PM 45.6244 -101.2339 102° East 497 572 31,000  Level Minneapolis Center
06:44PM 45.5933 -101.0422 103° East 496 571 31,000  Level Minneapolis Center
06:45PM 45.5625 -100.8497 103° East 496 571 31,000  Level Minneapolis Center
06:46PM 45.5278 -100.6175 102° East 497 572 31,100  Climbing Minneapolis Center
06:47PM 45.4969 -100.4256 103° East 496 571 31,000 -60 Descending Minneapolis Center
06:49PM 45.4642 -100.2364 104° East 491 565 31,000  Level Minneapolis Center
06:50PM 45.4325 -100.0461 103° East 490 564 31,000  Level Minneapolis Center
06:51PM 45.4061 -99.8919 104° East 493 567 31,000  Level Minneapolis Center
06:52PM 45.3647 -99.6597 104° East 498 573 31,000  Level Minneapolis Center
06:53PM 45.3306 -99.4669 104° East 499 574 31,000  Level Minneapolis Center
06:54PM 45.2958 -99.2731 104° East 501 577 31,000  Level Minneapolis Center
06:55PM 45.2542 -99.0425 104° East 502 578 31,000  Level Minneapolis Center
06:56PM 45.2186 -98.8508 105° East 501 577 31,000  Level Minneapolis Center
06:57PM 45.1842 -98.6581 104° East 503 579 31,000  Level Minneapolis Center
06:58PM 45.1475 -98.4647 105° East 506 582 31,000  Level Minneapolis Center
06:59PM 45.1122 -98.2742 105° East 504 580 31,000  Level Minneapolis Center
07:00PM 45.0750 -98.0831 105° East 503 579 31,000  Level Minneapolis Center
07:01PM 45.0369 -97.8814 105° East 504 580 31,000  Level Minneapolis Center
07:02PM 44.9992 -97.6922 106° East 502 578 31,000 -120 Level Minneapolis Center
07:03PM 44.9639 -97.4603 102° East 503 579 30,800 -900 Descending Minneapolis Center
07:04PM 44.9489 -97.2647 96° East 501 577 29,200 -900 Descending Minneapolis Center
07:05PM 44.9328 -97.0714 97° East 497 572 29,000 -120 Descending Minneapolis Center
07:06PM 44.9158 -96.8789 97° East 495 570 29,000  Level Minneapolis Center
07:07PM 44.9019 -96.6856 96° East 495 570 29,000  Level Minneapolis Center
07:08PM 44.8869 -96.4928 96° East 493 567 29,000  Level Minneapolis Center
07:09PM 44.8733 -96.2997 96° East 494 568 29,000  Level Minneapolis Center
07:10PM 44.8394 -96.0708 102° East 495 570 29,000  Level Minneapolis Center
07:11PM 44.8264 -95.9158 97° East 495 570 29,000 -840 Level Minneapolis Center
07:12PM 44.8114 -95.6844 95° East 494 568 27,300 -1,440 Descending Minneapolis Center
07:13PM 44.7981 -95.4889 95° East 498 573 26,100 -960 Descending Minneapolis Center
07:14PM 44.7869 -95.3344 96° East 498 573 25,400 -1,380 Descending Minneapolis Center
07:15PM 44.7694 -95.1069 96° East 490 564 23,300 -2,220 Descending Minneapolis Center
07:16PM 44.7550 -94.9292 96° East 469 540 20,900 -2,400 Descending Minneapolis Center
07:17PM 44.7436 -94.7592 95° East 447 514 18,400 -2,340 Descending Minneapolis Center
07:18PM 44.7292 -94.5775 96° East 430 495 16,100 -2,280 Descending Minneapolis Center
07:19PM 44.7158 -94.4233 97° East 399 459 13,700 -2,160 Descending Minneapolis Center
07:21PM 44.7033 -94.2714 97° East 393 452 11,300 -1,440 Descending Minneapolis Center
07:22PM 44.7114 -94.0733 87° East 351 404 10,500 -840 Descending Minneapolis Center
07:23PM 44.7389 -93.9544 72° East 320 368 9,400 -1,440 Descending Minneapolis Center
07:24PM 44.7892 -93.8383 59° Northeast 293 337 7,300 -1,200 Descending Minneapolis Center
07:25PM 44.8458 -93.7744 39° Northeast 256 295 7,000 -180 Descending Minneapolis Center
07:26PM 44.8842 -93.7292 40° Northeast 230 265 7,000  Level Minneapolis Center
07:27PM 44.9397 -93.6675 38° Northeast 212 244 7,000 -720 Level Minneapolis Center
07:28PM 44.9525 -93.5792 78° East 207 238 5,500 -1,200 Descending Minneapolis Center
07:29PM 44.9517 -93.5042 91° East 191 220 4,600 -840 Descending Minneapolis Center
07:30PM 44.9483 -93.4344 94° East 180 207 3,800 -780 Descending Minneapolis Center